Time;durP1;ratioP1;P1;durP2;ratioP2;P2;SDS_P1;SDS_P2;PMS_P1;PMS_P2;Temp;Humidity;BMP_temperature;BMP_pressure;BME280_temperature;BME280_humidity;BME280_pressure;Samples;Min_cycle;Max_cycle;Signal;HPM_P1;HPM_P2
2023/11/29 00:00:43;;;;;;;5.53;4.03;;;;;;;5.71;74.89;97741.13;4975515;28;20023;-89
2023/11/29 00:03:08;;;;;;;6.22;4.13;;;;;;;5.76;74.97;97749.09;4950540;28;20108;-89
2023/11/29 00:05:36;;;;;;;6.72;4.50;;;;;;;5.63;74.83;97739.84;4959555;28;20033;-90
2023/11/29 00:08:04;;;;;;;8.70;4.90;;;;;;;5.59;74.87;97764.69;4967256;28;20068;-89
2023/11/29 00:10:30;;;;;;;7.72;5.07;;;;;;;5.56;74.80;97773.25;4956991;28;20081;-89
2023/11/29 00:12:56;;;;;;;9.48;4.38;;;;;;;5.67;74.82;97790.81;4957159;28;20030;-89
2023/11/29 00:15:23;;;;;;;7.50;4.22;;;;;;;5.60;74.91;97796.47;4972863;28;20463;-89
2023/11/29 00:17:49;;;;;;;7.28;4.55;;;;;;;5.59;74.80;97794.84;4973460;28;20047;-89
2023/11/29 00:20:15;;;;;;;7.25;4.90;;;;;;;5.65;75.10;97809.78;4972752;28;20065;-88
2023/11/29 00:22:40;;;;;;;8.30;4.90;;;;;;;5.73;74.73;97815.59;4956832;28;20054;-89
2023/11/29 00:25:08;;;;;;;8.65;5.05;;;;;;;5.56;75.87;97797.25;4976244;28;20049;-89
2023/11/29 00:27:35;;;;;;;8.75;5.47;;;;;;;5.70;74.85;97827.63;4958873;28;20026;-89
2023/11/29 00:30:01;;;;;;;8.35;5.43;;;;;;;5.55;75.36;97793.00;4962331;28;20049;-89
2023/11/29 00:32:27;;;;;;;11.63;6.97;;;;;;;5.58;75.49;97805.81;4976279;28;20062;-90
2023/11/29 00:34:52;;;;;;;13.48;7.55;;;;;;;5.49;74.94;97780.75;4976565;28;20057;-89
2023/11/29 00:37:18;;;;;;;11.38;6.75;;;;;;;5.50;74.58;97772.50;4960299;28;20552;-91
2023/11/29 00:39:44;;;;;;;8.63;5.72;;;;;;;5.46;74.70;97766.09;4960034;28;20053;-90
2023/11/29 00:42:09;;;;;;;9.23;5.78;;;;;;;5.52;75.01;97782.88;4959794;28;20022;-89
2023/11/29 00:44:35;;;;;;;8.95;5.72;;;;;;;5.52;74.89;97797.03;4975906;28;20066;-90
2023/11/29 00:47:01;;;;;;;11.13;6.00;;;;;;;5.66;75.26;97826.59;4976830;28;20531;-90
2023/11/29 00:49:26;;;;;;;9.93;4.82;;;;;;;5.51;75.23;97821.31;4960147;28;20030;-90
2023/11/29 00:51:52;;;;;;;10.98;4.82;;;;;;;5.51;75.60;97813.31;4975984;28;20034;-90
2023/11/29 00:54:17;;;;;;;6.70;4.72;;;;;;;5.47;74.94;97819.19;4962009;28;20062;-90
2023/11/29 00:56:43;;;;;;;9.82;5.57;;;;;;;5.49;75.73;97815.47;4960946;28;20463;-89
2023/11/29 00:59:09;;;;;;;7.82;4.45;;;;;;;5.55;75.23;97833.84;4952839;28;20030;-90
2023/11/29 01:01:34;;;;;;;9.40;4.75;;;;;;;5.42;75.96;97811.22;4962282;28;20035;-90
2023/11/29 01:04:00;;;;;;;9.10;4.80;;;;;;;5.42;75.73;97827.22;4950867;28;20157;-90
2023/11/29 01:06:26;;;;;;;7.22;4.65;;;;;;;5.54;75.68;97834.94;4962927;28;20045;-89
2023/11/29 01:08:55;;;;;;;7.72;4.85;;;;;;;5.45;75.71;97820.53;4960247;28;20496;-90
2023/11/29 01:11:20;;;;;;;5.10;4.13;;;;;;;5.45;76.11;97833.88;4955161;28;20501;-90
2023/11/29 01:13:48;;;;;;;5.95;3.88;;;;;;;5.40;76.11;97824.03;4961563;28;20026;-90
2023/11/29 01:16:14;;;;;;;7.05;4.60;;;;;;;5.45;76.61;97834.69;4953397;28;20061;-90
2023/11/29 01:18:43;;;;;;;7.20;5.20;;;;;;;5.41;76.87;97824.81;4962800;28;20026;-90
2023/11/29 01:21:14;;;;;;;9.90;5.15;;;;;;;5.43;75.62;97830.69;4963815;28;20044;-90
2023/11/29 01:23:40;;;;;;;7.95;4.78;;;;;;;5.47;76.11;97845.09;4995602;28;20522;-90
2023/11/29 01:26:06;;;;;;;6.72;4.93;;;;;;;5.40;76.17;97841.94;4991357;28;20129;-90
2023/11/29 01:28:31;;;;;;;7.32;4.97;;;;;;;5.43;75.74;97863.50;4962518;28;20034;-90
2023/11/29 01:30:57;;;;;;;7.38;4.80;;;;;;;5.37;75.52;97853.13;4990173;28;20025;-90
2023/11/29 01:33:23;;;;;;;8.82;5.18;;;;;;;5.32;75.69;97845.16;4981315;28;20080;-90
2023/11/29 01:35:49;;;;;;;8.43;5.43;;;;;;;5.34;75.98;97864.38;5008216;28;20484;-90
2023/11/29 01:38:14;;;;;;;8.73;5.80;;;;;;;5.39;76.09;97883.81;5005279;28;20068;-90
2023/11/29 01:40:40;;;;;;;8.52;5.50;;;;;;;5.27;76.64;97880.63;4980623;28;20093;-90
2023/11/29 01:43:05;;;;;;;11.23;6.20;;;;;;;5.24;76.61;97879.31;4965071;28;20068;-89
2023/11/29 01:45:31;;;;;;;11.43;6.07;;;;;;;5.07;75.66;97855.59;4991662;28;20089;-90
2023/11/29 01:47:57;;;;;;;9.13;5.93;;;;;;;5.11;76.10;97863.88;4986872;28;20044;-90
2023/11/29 01:50:25;;;;;;;10.30;5.57;;;;;;;5.12;76.15;97873.47;4981203;28;20037;-90
2023/11/29 01:52:51;;;;;;;11.40;6.38;;;;;;;4.80;76.58;97855.13;4964862;28;20018;-89
2023/11/29 01:55:16;;;;;;;10.40;6.50;;;;;;;4.90;76.60;97889.78;4993708;28;20049;-90
2023/11/29 01:57:43;;;;;;;10.18;6.35;;;;;;;4.84;77.41;97886.31;4989655;28;20034;-89
2023/11/29 02:00:10;;;;;;;10.30;7.07;;;;;;;4.83;76.78;97889.25;4981112;28;20030;-90
2023/11/29 02:02:36;;;;;;;9.57;6.43;;;;;;;4.82;76.89;97877.78;4996941;28;20034;-90
2023/11/29 02:05:01;;;;;;;11.38;6.70;;;;;;;4.90;77.86;97887.13;4986777;28;20030;-89
2023/11/29 02:07:27;;;;;;;10.23;6.40;;;;;;;4.70;76.69;97871.91;4993476;28;20178;-89
2023/11/29 02:09:52;;;;;;;9.82;6.57;;;;;;;4.57;77.28;97859.94;4964129;28;20042;-89
2023/11/29 02:12:21;;;;;;;11.70;7.13;;;;;;;4.51;77.46;97855.66;4964519;28;20475;-89
2023/11/29 02:14:47;;;;;;;11.48;6.00;;;;;;;4.60;77.72;97866.59;4995069;28;20022;-91
2023/11/29 02:17:12;;;;;;;12.57;7.00;;;;;;;4.46;77.68;97876.97;4981267;28;20542;-89
2023/11/29 02:19:38;;;;;;;11.20;6.75;;;;;;;4.45;78.50;97892.16;4976459;28;20037;-88
2023/11/29 02:22:04;;;;;;;10.95;6.90;;;;;;;4.38;78.26;97906.81;4989780;28;20060;-89
2023/11/29 02:24:39;;;;;;;12.05;7.55;;;;;;;4.27;78.37;97911.31;4980471;28;20057;-89
2023/11/29 02:27:05;;;;;;;12.35;6.70;;;;;;;4.24;78.60;97920.63;4977718;28;20492;-89
2023/11/29 02:29:31;;;;;;;10.02;6.82;;;;;;;4.19;78.69;97928.63;4977134;28;20038;-90
2023/11/29 02:31:56;;;;;;;10.77;6.53;;;;;;;4.16;78.92;97915.81;4964737;28;20033;-90
2023/11/29 02:34:22;;;;;;;10.20;6.55;;;;;;;4.15;78.54;97913.41;4979927;28;20476;-89
2023/11/29 02:36:47;;;;;;;11.50;7.40;;;;;;;4.28;78.74;97925.47;5014219;28;20032;-90
2023/11/29 02:39:13;;;;;;;12.75;7.40;;;;;;;4.24;79.18;97922.50;5003996;28;20037;-90
2023/11/29 02:41:39;;;;;;;10.63;6.75;;;;;;;4.19;79.12;97910.00;5010565;28;20022;-89
2023/11/29 02:44:05;;;;;;;14.40;7.45;;;;;;;4.30;78.33;97942.78;4980508;28;20113;-90
2023/11/29 02:46:30;;;;;;;10.63;7.57;;;;;;;4.19;78.22;97931.31;4961051;28;20061;-90
2023/11/29 02:48:57;;;;;;;12.48;8.52;;;;;;;4.12;78.19;97937.94;4988474;28;20432;-89
2023/11/29 02:51:23;;;;;;;15.82;8.07;;;;;;;4.09;78.82;97938.44;4996724;28;20034;-89
2023/11/29 02:53:49;;;;;;;9.20;6.47;;;;;;;4.03;79.44;97953.63;4979223;28;20378;-89
2023/11/29 02:56:14;;;;;;;12.77;6.85;;;;;;;3.92;79.48;97958.09;4980337;28;20089;-90
2023/11/29 02:58:40;;;;;;;9.85;7.00;;;;;;;3.91;78.97;97958.34;4994751;28;20491;-90
2023/11/29 03:01:06;;;;;;;10.07;6.65;;;;;;;3.89;78.95;97960.47;4979794;28;20066;-90
2023/11/29 03:03:31;;;;;;;11.90;6.88;;;;;;;3.80;79.20;97952.97;4979946;28;20117;-88
2023/11/29 03:05:57;;;;;;;9.38;6.40;;;;;;;3.73;78.70;97943.63;4971961;28;20076;-88
2023/11/29 03:08:23;;;;;;;8.93;6.03;;;;;;;3.90;78.97;97962.06;4986576;28;20112;-88
2023/11/29 03:10:48;;;;;;;7.70;5.18;;;;;;;3.93;79.21;97962.34;4989138;28;20117;-89
2023/11/29 03:13:14;;;;;;;7.90;5.68;;;;;;;3.96;79.73;97972.47;4979247;28;20028;-89
2023/11/29 03:15:39;;;;;;;10.55;6.15;;;;;;;3.99;79.94;97968.50;4979602;28;20566;-89
2023/11/29 03:18:05;;;;;;;10.57;7.22;;;;;;;3.92;79.53;97974.09;4980309;28;20510;-88
2023/11/29 03:20:30;;;;;;;13.57;7.82;;;;;;;3.99;78.73;97992.47;4979998;28;20064;-91
2023/11/29 03:22:56;;;;;;;12.32;7.80;;;;;;;3.81;79.29;97997.16;4965075;28;20042;-88
2023/11/29 03:25:25;;;;;;;11.50;7.22;;;;;;;3.78;78.67;97992.38;4979250;28;20030;-89
2023/11/29 03:27:50;;;;;;;13.85;8.30;;;;;;;3.62;79.59;97996.00;4992620;28;20428;-89
2023/11/29 03:30:16;;;;;;;13.68;8.23;;;;;;;3.55;79.03;97985.59;4993460;28;20110;-89
2023/11/29 03:32:42;;;;;;;12.02;6.93;;;;;;;3.58;79.29;98000.25;4976598;28;20022;-88
2023/11/29 03:35:10;;;;;;;10.55;7.43;;;;;;;3.65;79.31;98022.09;4961704;28;20034;-89
2023/11/29 03:37:35;;;;;;;12.57;7.18;;;;;;;3.55;78.92;97998.06;4976657;28;20025;-89
2023/11/29 03:40:01;;;;;;;10.15;6.57;;;;;;;3.58;78.92;98009.00;4960992;28;20595;-89
2023/11/29 03:42:26;;;;;;;12.82;8.02;;;;;;;3.67;79.01;98027.97;4961017;28;20023;-89
2023/11/29 03:44:56;;;;;;;11.05;7.05;;;;;;;3.79;78.67;98044.53;4977200;28;20015;-89
2023/11/29 03:47:21;;;;;;;11.43;6.70;;;;;;;3.60;78.86;98024.75;4960609;28;20026;-89
2023/11/29 03:49:47;;;;;;;10.90;6.25;;;;;;;3.56;79.63;98031.63;4977513;28;20018;-89
2023/11/29 03:52:12;;;;;;;12.25;7.68;;;;;;;3.44;79.80;98029.97;4960125;28;20037;-89
2023/11/29 03:54:38;;;;;;;12.95;7.30;;;;;;;3.37;79.62;98032.03;4960739;28;20534;-89
2023/11/29 03:57:04;;;;;;;11.18;7.15;;;;;;;3.27;80.92;98049.78;4961329;28;20424;-89
2023/11/29 03:59:35;;;;;;;12.70;7.10;;;;;;;3.42;79.91;98057.84;4960343;28;20029;-89
2023/11/29 04:02:00;;;;;;;13.25;7.63;;;;;;;3.35;79.23;98049.31;4960566;28;20038;-89
2023/11/29 04:04:29;;;;;;;13.27;8.13;;;;;;;3.31;80.06;98056.19;4959527;28;20109;-88
2023/11/29 04:06:54;;;;;;;11.82;7.97;;;;;;;3.45;79.77;98089.28;4971305;28;20026;-96
2023/11/29 04:09:20;;;;;;;14.55;7.82;;;;;;;3.25;80.22;98068.63;4972121;28;20084;-95
2023/11/29 04:11:46;;;;;;;12.77;8.63;;;;;;;3.33;79.68;98076.16;4970352;28;20027;-95
2023/11/29 04:14:12;;;;;;;14.15;9.45;;;;;;;3.28;79.59;98077.97;4971844;28;20030;-95
2023/11/29 04:16:38;;;;;;;12.95;8.07;;;;;;;3.32;79.77;98093.19;4971571;28;20120;-96
2023/11/29 04:19:03;;;;;;;12.95;8.50;;;;;;;3.36;79.72;98099.59;4972300;28;20048;-95
2023/11/29 04:21:31;;;;;;;10.32;7.75;;;;;;;3.28;79.12;98081.44;4970549;28;20113;-94
2023/11/29 04:23:57;;;;;;;14.75;8.63;;;;;;;3.33;80.04;98101.97;4954783;28;20498;-94
2023/11/29 04:26:42;;;;;;;11.23;7.55;;;;;;;3.58;79.70;98135.97;4970423;28;20038;-94
2023/11/29 04:29:09;;;;;;;10.50;6.32;;;;;;;3.51;79.23;98122.88;4992454;28;20045;-95
2023/11/29 04:31:44;;;;;;;10.27;7.13;;;;;;;3.67;79.52;98137.09;5006794;28;20060;-96
2023/11/29 04:34:10;;;;;;;9.32;6.57;;;;;;;3.63;79.18;98125.34;4987938;28;20484;-93
2023/11/29 04:36:36;;;;;;;12.45;6.60;;;;;;;3.58;79.66;98109.34;4970432;28;20017;-95
2023/11/29 04:39:05;;;;;;;11.88;7.40;;;;;;;3.69;79.39;98126.19;4969570;28;20029;-96
2023/11/29 04:41:31;;;;;;;10.30;7.15;;;;;;;3.59;79.55;98121.59;4985564;28;20038;-96
2023/11/29 04:43:59;;;;;;;9.40;6.57;;;;;;;3.64;79.24;98132.28;4970665;28;20034;-96
2023/11/29 04:46:25;;;;;;;10.70;7.45;;;;;;;3.60;80.02;98123.22;4968607;28;20040;-96
2023/11/29 04:48:50;;;;;;;14.68;9.13;;;;;;;3.66;79.29;98126.72;4968370;28;20066;-96
2023/11/29 04:51:20;;;;;;;11.65;8.35;;;;;;;3.61;79.15;98128.28;4973144;28;20033;-96
2023/11/29 04:53:54;;;;;;;10.73;7.20;;;;;;;3.54;79.86;98137.53;4970147;28;20035;-96
2023/11/29 04:56:24;;;;;;;14.73;7.60;;;;;;;3.53;79.84;98143.88;4967181;28;20031;-95
2023/11/29 04:58:49;;;;;;;20.50;10.75;;;;;;;3.34;79.55;98132.81;4966669;28;20035;-96
2023/11/29 05:01:15;;;;;;;13.20;8.63;;;;;;;3.41;79.79;98166.16;4982124;28;20038;-96
2023/11/29 05:03:48;;;;;;;23.65;11.77;;;;;;;3.32;80.08;98157.03;4966566;28;20027;-96
2023/11/29 05:06:14;;;;;;;15.23;9.43;;;;;;;3.22;79.44;98160.38;4963609;28;20489;-96
2023/11/29 05:08:40;;;;;;;15.68;10.32;;;;;;;3.13;79.31;98159.22;4966474;28;20093;-95
2023/11/29 05:11:09;;;;;;;20.38;11.93;;;;;;;3.11;79.38;98156.00;4963388;28;20107;-94
2023/11/29 05:13:34;;;;;;;24.27;13.30;;;;;;;3.10;79.22;98167.69;4976550;28;20033;-91
2023/11/29 05:16:03;;;;;;;20.50;13.48;;;;;;;3.17;79.45;98186.13;4945270;28;20027;-95
2023/11/29 05:18:28;;;;;;;22.38;14.13;;;;;;;3.10;78.69;98177.53;4961713;28;20079;-91
2023/11/29 05:20:54;;;;;;;22.67;14.13;;;;;;;3.19;78.35;98200.75;4957606;28;20034;-89
2023/11/29 05:23:21;;;;;;;16.45;10.10;;;;;;;3.10;79.71;98183.66;4934994;28;20513;-89
2023/11/29 05:25:47;;;;;;;15.57;10.18;;;;;;;3.20;79.62;98198.94;4936505;28;20118;-88
2023/11/29 05:28:12;;;;;;;14.20;10.15;;;;;;;3.15;80.51;98183.69;4939381;29;20057;-89
2023/11/29 05:30:47;;;;;;;18.33;9.88;;;;;;;3.23;79.84;98185.91;4947688;28;20393;-89
2023/11/29 05:33:19;;;;;;;17.92;9.00;;;;;;;3.14;80.03;98187.41;4953201;28;20023;-90
2023/11/29 05:36:12;;;;;;;16.23;11.13;;;;;;;3.09;80.71;98183.91;4952530;28;20023;-93
2023/11/29 05:38:38;;;;;;;22.50;13.38;;;;;;;3.11;80.58;98182.59;4984756;28;20109;-90
2023/11/29 05:41:15;;;;;;;18.13;11.45;;;;;;;3.24;80.56;98208.81;4953414;28;20135;-94
2023/11/29 05:43:41;;;;;;;14.73;11.20;;;;;;;3.06;80.70;98181.75;4968320;28;20108;-87
2023/11/29 05:46:16;;;;;;;18.88;12.00;;;;;;;3.30;80.33;98220.31;4980902;28;20026;-93
2023/11/29 05:48:44;;;;;;;20.33;11.95;;;;;;;3.25;80.65;98204.28;4951592;28;20042;-93
2023/11/29 05:51:11;;;;;;;20.55;13.48;;;;;;;3.07;80.29;98180.69;4963226;28;20488;-92
2023/11/29 05:53:43;;;;;;;20.60;14.63;;;;;;;3.34;80.67;98201.97;4941115;28;20113;-92
2023/11/29 05:56:33;;;;;;;19.05;12.63;;;;;;;3.33;80.46;98209.16;4960727;28;20027;-91
2023/11/29 05:59:56;;;;;;;24.02;13.57;;;;;;;3.17;80.64;98188.78;4949164;28;20125;-94
2023/11/29 06:02:34;;;;;;;12.80;8.57;;;;;;;3.11;79.92;98232.31;4924696;29;20083;-96
2023/11/29 06:08:04;;;;;;;12.77;6.97;;;;;;;3.15;79.01;98238.75;4961165;28;20126;-84
2023/11/29 06:10:29;;;;;;;11.20;6.93;;;;;;;3.24;78.65;98247.91;4975663;28;20390;-84
2023/11/29 06:12:58;;;;;;;11.18;7.25;;;;;;;3.46;78.39;98255.06;4975434;28;20838;-93
2023/11/29 06:15:28;;;;;;;13.57;8.75;;;;;;;3.51;79.26;98271.06;4957044;28;20032;-92
2023/11/29 06:18:08;;;;;;;;;;;;;;;;;;;;;
2023/11/29 06:20:34;;;;;;;12.38;9.27;;;;;;;3.66;78.71;98267.78;4976498;28;20052;-91
2023/11/29 06:23:07;;;;;;;17.30;12.90;;;;;;;3.48;79.12;98229.00;4959101;28;20420;-91
2023/11/29 06:25:34;;;;;;;16.45;10.27;;;;;;;3.90;79.09;98266.44;4964624;28;20385;-96
2023/11/29 06:28:00;;;;;;;25.05;18.42;;;;;;;3.90;79.41;98257.63;4974757;28;20026;-95
2023/11/29 06:30:32;;;;;;;20.30;11.85;;;;;;;4.04;78.63;98269.47;4968356;28;20026;-95
2023/11/29 06:33:21;;;;;;;16.52;11.70;;;;;;;4.30;79.07;98288.38;4984914;28;20030;-95
2023/11/29 06:36:04;;;;;;;18.90;12.82;;;;;;;4.28;78.77;98277.16;4991005;28;20034;-96
2023/11/29 06:38:39;;;;;;;20.70;13.95;;;;;;;4.41;77.99;98269.50;4968315;28;20065;-96
2023/11/29 06:41:35;;;;;;;18.35;12.63;;;;;;;4.49;78.08;98264.78;4973443;28;20057;-94
2023/11/29 06:44:04;;;;;;;17.42;11.77;;;;;;;4.72;78.12;98295.59;4928635;29;20035;-90
2023/11/29 06:46:29;;;;;;;23.27;11.48;;;;;;;4.67;78.10;98275.03;4923763;29;20031;-90
2023/11/29 06:48:55;;;;;;;15.82;10.88;;;;;;;4.66;78.34;98281.41;4923760;29;20037;-89
2023/11/29 06:51:28;;;;;;;13.65;9.43;;;;;;;4.66;77.83;98278.75;4917318;28;20049;-89
2023/11/29 06:53:53;;;;;;;21.00;12.25;;;;;;;4.66;77.22;98281.41;4923446;29;20058;-87
2023/11/29 06:56:49;;;;;;;;;;;;;;;;;;;;;
2023/11/29 06:59:18;;;;;;;311.92;157.50;;;;;;;4.86;77.00;98291.41;4945727;29;20126;-94
2023/11/29 07:02:05;;;;;;;25.42;19.02;;;;;;;5.01;76.75;98304.84;4928988;29;20394;-96
2023/11/29 07:04:45;;;;;;;23.58;14.15;;;;;;;5.15;76.50;98307.84;4911142;29;20047;-93
2023/11/29 07:07:23;;;;;;;16.85;10.88;;;;;;;5.18;76.08;98301.19;4910060;29;20095;-93
2023/11/29 07:10:21;;;;;;;23.85;12.88;;;;;;;5.20;75.41;98293.72;4984085;28;20045;-93
2023/11/29 07:13:04;;;;;;;12.38;9.80;;;;;;;5.38;75.05;98313.84;4971494;28;20041;-93
2023/11/29 07:22:24;;;;;;;8.20;5.75;;;;;;;5.79;73.33;98340.66;4930383;28;20054;-92
2023/11/29 07:25:24;;;;;;;15.00;12.93;;;;;;;6.04;71.90;98345.31;4906718;29;20101;-95
2023/11/29 07:27:56;;;;;;;12.63;9.70;;;;;;;6.01;71.50;98327.13;4941116;29;20044;-94
2023/11/29 07:30:43;;;;;;;11.50;7.03;;;;;;;6.16;71.76;98334.38;4927637;29;20199;-94
2023/11/29 07:34:06;;;;;;;13.55;7.00;;;;;;;6.41;71.41;98350.47;4911996;29;20033;-94
2023/11/29 07:36:44;;;;;;;;;;;;;;;6.50;70.59;98349.94;4893216;29;20052;-95
2023/11/29 07:43:26;;;;;;;33.13;14.02;;;;;;;6.53;71.29;98315.41;4868680;29;20465;-95
2023/11/29 07:46:29;;;;;;;28.10;13.90;;;;;;;6.76;71.88;98346.16;4828618;29;20499;-95
2023/11/29 07:48:55;;;;;;;22.10;13.55;;;;;;;6.77;70.98;98336.28;4762662;30;20043;-91
2023/11/29 07:54:58;;;;;;;26.67;15.80;;;;;;;6.74;71.72;98326.91;4778662;30;20035;-96
2023/11/29 07:57:37;;;;;;;;;;;;;;;6.93;71.44;98339.72;4824518;29;20046;-95
2023/11/29 08:00:44;;;;;;;;;;;;;;;;;;;;;
2023/11/29 08:03:23;;;;;;;19.90;11.63;;;;;;;6.65;71.91;98317.81;4847997;29;20045;-94
2023/11/29 08:06:00;;;;;;;20.67;14.10;;;;;;;6.82;72.02;98328.25;4839193;29;20053;-96
2023/11/29 08:08:36;;;;;;;17.27;12.57;;;;;;;6.96;71.49;98331.97;4819693;29;20037;-94
2023/11/29 08:11:02;;;;;;;20.23;13.43;;;;;;;7.06;71.34;98348.00;4840289;29;20049;-94
2023/11/29 08:13:28;;;;;;;17.35;11.93;;;;;;;7.07;70.36;98332.75;4875680;29;20079;-92
2023/11/29 08:19:38;;;;;;;19.58;11.23;;;;;;;7.51;69.02;98364.22;4943607;29;20588;-94
2023/11/29 08:24:51;;;;;;;18.17;10.88;;;;;;;7.45;67.99;98355.41;4968537;28;20489;-91
2023/11/29 08:27:33;;;;;;;15.57;9.93;;;;;;;7.46;68.04;98348.97;4946333;28;20084;-90
2023/11/29 08:30:01;;;;;;;14.82;8.40;;;;;;;7.65;67.58;98375.94;4950186;28;20026;-91
2023/11/29 08:32:30;;;;;;;13.65;8.90;;;;;;;7.59;67.20;98349.47;4952461;28;20098;-91
2023/11/29 08:35:04;;;;;;;10.98;6.80;;;;;;;7.60;67.04;98335.00;4965864;28;20045;-90
2023/11/29 08:37:40;;;;;;;14.13;11.00;;;;;;;7.76;66.30;98351.78;4965477;28;20030;-92
2023/11/29 08:40:17;;;;;;;18.30;12.25;;;;;;;7.86;66.60;98346.38;4975637;28;20092;-96
2023/11/29 08:42:49;;;;;;;12.23;9.32;;;;;;;7.83;67.35;98353.09;4970376;28;20039;-95
2023/11/29 08:45:17;;;;;;;31.98;25.35;;;;;;;8.02;66.30;98360.53;4961149;28;20042;-93
2023/11/29 08:47:46;;;;;;;12.18;9.27;;;;;;;8.19;66.94;98352.91;4965412;28;20034;-91
2023/11/29 08:50:15;;;;;;;11.07;7.45;;;;;;;8.50;66.26;98364.25;4952083;28;20512;-90
2023/11/29 08:52:57;;;;;;;12.15;7.63;;;;;;;8.69;64.27;98361.72;4965269;28;20026;-92
2023/11/29 08:55:31;;;;;;;11.13;6.05;;;;;;;8.84;63.21;98355.41;4964673;28;20050;-94
2023/11/29 08:57:57;;;;;;;9.77;5.65;;;;;;;9.13;62.41;98364.53;4966368;28;20026;-93
2023/11/29 09:00:27;;;;;;;6.28;4.60;;;;;;;9.25;60.94;98356.91;4963819;28;20120;-92
2023/11/29 09:03:09;;;;;;;13.40;10.00;;;;;;;9.33;61.12;98369.72;4966192;28;20034;-92
2023/11/29 09:05:52;;;;;;;6.00;4.35;;;;;;;9.48;60.33;98364.19;4967079;28;20034;-93
2023/11/29 09:08:21;;;;;;;7.38;5.13;;;;;;;9.67;59.35;98366.09;4964088;28;20480;-91
2023/11/29 09:10:59;;;;;;;13.80;8.00;;;;;;;9.66;60.61;98351.06;4968897;28;20026;-95
2023/11/29 09:13:50;;;;;;;24.45;10.35;;;;;;;9.81;61.13;98366.22;4974066;28;20027;-94
2023/11/29 09:16:25;;;;;;;10.65;6.35;;;;;;;10.16;58.91;98369.53;4986295;28;20038;-93
2023/11/29 09:19:32;;;;;;;;;;;;;;;;;;;;;
2023/11/29 09:22:00;;;;;;;;;;;;;;;;;;;;;
2023/11/29 09:24:28;;;;;;;2.97;2.17;;;;;;;10.47;49.57;98383.38;4947907;29;20180;-96
2023/11/29 09:27:28;;;;;;;4.03;2.03;;;;;;;10.55;49.38;98382.72;4949889;29;20110;-94
2023/11/29 09:30:03;;;;;;;3.75;3.15;;;;;;;10.68;50.71;98365.00;4944420;29;20035;-95
2023/11/29 09:32:35;;;;;;;15.52;3.22;;;;;;;10.68;50.27;98383.84;4945470;29;20031;-95
2023/11/29 09:35:00;;;;;;;;;;;;;;;10.79;49.62;98395.25;4925957;29;20044;-91
2023/11/29 09:37:38;;;;;;;3.75;2.35;;;;;;;10.42;48.51;98362.72;4939340;29;19989;-92
2023/11/29 09:40:17;;;;;;;12.40;7.80;;;;;;;10.34;50.39;98374.13;4902050;29;20443;-92
2023/11/29 09:42:43;;;;;;;3.85;2.97;;;;;;;10.34;51.45;98387.59;4877708;29;20067;-93
2023/11/29 09:45:18;;;;;;;4.43;3.25;;;;;;;10.28;51.63;98397.59;4871499;29;20049;-93
2023/11/29 09:47:44;;;;;;;3.83;2.88;;;;;;;10.16;53.22;98399.13;4870755;29;20037;-92
2023/11/29 09:50:10;;;;;;;3.92;2.55;;;;;;;9.98;51.97;98379.97;4909680;29;20506;-92
2023/11/29 09:52:39;;;;;;;4.72;2.50;;;;;;;9.71;52.50;98365.25;4932417;29;20044;-90
2023/11/29 09:55:17;;;;;;;3.30;2.55;;;;;;;9.79;52.88;98389.88;4948546;29;20035;-94
2023/11/29 09:57:57;;;;;;;3.60;2.35;;;;;;;9.69;51.35;98358.53;4945311;29;20114;-93
2023/11/29 10:00:41;;;;;;;3.22;2.00;;;;;;;9.76;51.27;98383.22;4942300;29;20098;-94
2023/11/29 10:03:16;;;;;;;3.08;2.15;;;;;;;9.57;52.66;98353.59;4926219;29;20043;-95
2023/11/29 10:05:46;;;;;;;2.63;1.80;;;;;;;9.67;52.06;98368.78;4940724;29;20039;-92
2023/11/29 10:08:16;;;;;;;2.45;1.90;;;;;;;9.58;52.13;98365.13;4923257;29;20027;-91
2023/11/29 10:10:45;;;;;;;5.80;3.95;;;;;;;9.69;52.41;98378.19;4927894;28;20038;-92
2023/11/29 10:13:15;;;;;;;2.53;2.10;;;;;;;9.82;51.15;98394.72;4927996;28;20022;-91
2023/11/29 10:15:55;;;;;;;;;;;;;;;;;;;;;
2023/11/29 10:18:21;;;;;;;6.35;3.30;;;;;;;9.67;49.46;98374.97;4968612;28;20053;-91
2023/11/29 10:20:53;;;;;;;2.50;1.98;;;;;;;9.73;49.50;98372.22;4964215;28;20033;-95
2023/11/29 10:23:19;;;;;;;1.90;1.42;;;;;;;9.73;50.88;98370.31;4962683;28;20110;-91
2023/11/29 10:25:48;;;;;;;2.15;1.63;;;;;;;9.78;49.41;98353.34;4967727;28;20022;-92
2023/11/29 10:28:17;;;;;;;3.92;3.20;;;;;;;9.85;49.22;98351.09;4968767;28;20036;-94
2023/11/29 10:30:45;;;;;;;1.77;1.55;;;;;;;10.07;48.94;98382.81;4970535;28;20093;-94
2023/11/29 10:36:32;;;;;;;3.47;1.52;;;;;;;10.21;48.17;98380.19;4996066;28;20148;-92
2023/11/29 10:39:18;;;;;;;2.42;1.67;;;;;;;9.98;48.26;98387.22;4968011;28;20403;-94
2023/11/29 10:42:09;;;;;;;3.30;2.10;;;;;;;9.95;49.90;98382.44;4972963;28;20041;-90
2023/11/29 10:44:42;;;;;;;3.45;2.10;;;;;;;9.99;48.92;98397.72;4984930;28;20025;-92
2023/11/29 10:47:58;;;;;;;2.97;2.03;;;;;;;10.09;49.50;98415.63;4964828;28;20045;-93
2023/11/29 10:50:31;;;;;;;3.38;1.77;;;;;;;9.82;49.55;98382.06;4999869;28;20029;-92
2023/11/29 10:52:57;;;;;;;3.13;2.45;;;;;;;9.84;51.18;98381.78;4981354;28;20078;-93
2023/11/29 10:55:25;;;;;;;5.38;2.90;;;;;;;9.88;49.40;98396.25;4973357;28;20040;-90
2023/11/29 10:58:20;;;;;;;3.08;2.40;;;;;;;9.90;49.59;98400.25;4976522;28;20037;-90
2023/11/29 11:00:46;;;;;;;2.90;2.30;;;;;;;9.82;50.02;98375.88;4980160;28;20499;-90
2023/11/29 11:03:54;;;;;;;4.00;2.33;;;;;;;10.01;50.03;98405.50;4965611;28;20088;-96
2023/11/29 11:09:59;;;;;;;4.47;2.47;;;;;;;9.72;51.42;98398.31;4921293;29;20505;-92
2023/11/29 11:13:25;;;;;;;;;;;;;;;;;;;;;
2023/11/29 11:16:13;;;;;;;3.40;2.80;;;;;;;9.81;50.74;98415.38;4892845;29;20143;-94
2023/11/29 11:18:45;;;;;;;2.30;1.77;;;;;;;9.93;50.36;98441.09;4869783;29;20048;-92
2023/11/29 11:21:28;;;;;;;;;;;;;;;;;;;;;
2023/11/29 11:24:03;;;;;;;3.13;2.10;;;;;;;9.94;49.70;98434.59;4978356;28;20031;-95
2023/11/29 11:27:45;;;;;;;;;;;;;;;;;;;;;
2023/11/29 11:30:28;;;;;;;5.40;2.25;;;;;;;9.96;50.43;98456.63;4951414;29;20130;-93
2023/11/29 11:33:23;;;;;;;3.42;2.42;;;;;;;9.78;51.25;98436.69;5021719;28;20033;-95
2023/11/29 11:35:55;;;;;;;2.53;1.80;;;;;;;9.76;48.94;98430.81;4992255;28;20049;-95
2023/11/29 11:38:26;;;;;;;4.60;3.88;;;;;;;9.76;51.65;98449.63;4970129;28;20475;-95
2023/11/29 11:40:52;;;;;;;4.35;2.83;;;;;;;9.71;52.53;98464.72;4970962;28;20034;-96
2023/11/29 11:46:32;;;;;;;3.45;2.50;;;;;;;9.71;51.79;98463.88;4925017;28;20435;-92
2023/11/29 11:48:58;;;;;;;4.03;2.90;;;;;;;9.91;52.02;98485.19;4980881;28;20052;-91
2023/11/29 11:51:35;;;;;;;5.38;3.08;;;;;;;9.84;52.55;98489.31;4971515;28;20026;-94
2023/11/29 11:54:01;;;;;;;4.93;3.22;;;;;;;9.57;52.34;98469.16;5007657;28;20022;-90
2023/11/29 11:56:30;;;;;;;4.00;2.97;;;;;;;9.73;52.58;98491.28;4986964;28;20029;-95
2023/11/29 11:59:12;;;;;;;4.15;3.00;;;;;;;9.84;52.60;98478.56;4987471;28;20030;-95
2023/11/29 12:01:40;;;;;;;6.00;3.88;;;;;;;9.81;52.01;98492.56;4986772;28;20022;-96
2023/11/29 12:04:08;;;;;;;2.97;2.42;;;;;;;9.91;51.39;98487.06;5000445;28;20026;-95
2023/11/29 12:06:37;;;;;;;3.92;2.97;;;;;;;10.10;52.30;98492.50;4996546;28;20014;-93
2023/11/29 12:09:11;;;;;;;3.55;2.40;;;;;;;10.05;50.93;98497.97;4979636;28;20025;-92
2023/11/29 12:11:56;;;;;;;2.90;2.17;;;;;;;9.85;51.21;98490.91;4994238;28;20053;-92
2023/11/29 12:14:28;;;;;;;6.35;3.20;;;;;;;9.65;51.22;98506.16;4991252;28;20045;-90
2023/11/29 12:17:48;;;;;;;4.38;2.38;;;;;;;9.79;50.76;98525.09;4973946;28;20060;-93
2023/11/29 12:20:56;;;;;;;;;;;;;;;;;;;;;
2023/11/29 12:23:34;;;;;;;6.35;4.53;;;;;;;9.40;52.29;98499.16;4996917;28;20048;-90
2023/11/29 12:26:32;;;;;;;6.57;3.17;;;;;;;9.29;53.97;98493.03;4972349;28;20101;-92
2023/11/29 12:29:04;;;;;;;4.28;2.75;;;;;;;9.22;53.17;98507.88;4991057;28;20033;-91
2023/11/29 12:31:37;;;;;;;2.67;2.13;;;;;;;9.37;53.22;98517.72;4990342;28;20029;-91
2023/11/29 12:34:32;;;;;;;2.83;2.38;;;;;;;9.37;53.07;98534.63;4990312;28;20037;-91
2023/11/29 12:37:42;;;;;;;3.47;2.25;;;;;;;9.38;53.59;98521.97;5006431;28;20037;-92
2023/11/29 12:40:37;;;;;;;6.50;4.00;;;;;;;9.61;53.82;98555.41;5007399;28;20102;-93
2023/11/29 12:43:08;;;;;;;5.15;3.92;;;;;;;9.47;53.97;98537.22;4980404;28;20048;-94
2023/11/29 12:45:59;;;;;;;8.43;3.75;;;;;;;9.61;53.47;98569.63;4971591;28;20033;-94
2023/11/29 12:48:39;;;;;;;7.18;3.50;;;;;;;9.42;53.99;98555.25;4987040;28;20482;-96